sensor_id;sensor_type;location;lat;lon;timestamp;P1;durP1;ratioP1;P2;durP2;ratioP2
6665;SDS011;3369;49.906;8.598;2023-01-29T00:00:00;5.57;;;4.90;;
6665;SDS011;3369;49.906;8.598;2023-01-29T00:02:30;4.87;;;4.37;;
6665;SDS011;3369;49.906;8.598;2023-01-29T00:04:57;4.53;;;3.73;;
6665;SDS011;3369;49.906;8.598;2023-01-29T00:07:23;4.37;;;3.93;;
6665;SDS011;3369;49.906;8.598;2023-01-29T00:09:49;4.90;;;4.40;;
6665;SDS011;3369;49.906;8.598;2023-01-29T00:12:15;5.67;;;4.13;;
6665;SDS011;3369;49.906;8.598;2023-01-29T00:14:40;6.33;;;4.37;;
6665;SDS011;3369;49.906;8.598;2023-01-29T00:17:06;4.47;;;4.07;;
6665;SDS011;3369;49.906;8.598;2023-01-29T00:19:34;4.10;;;3.80;;
6665;SDS011;3369;49.906;8.598;2023-01-29T00:22:00;5.03;;;3.70;;
6665;SDS011;3369;49.906;8.598;2023-01-29T00:24:25;4.07;;;3.67;;
6665;SDS011;3369;49.906;8.598;2023-01-29T00:26:51;5.57;;;4.37;;
6665;SDS011;3369;49.906;8.598;2023-01-29T00:29:16;4.47;;;3.53;;
6665;SDS011;3369;49.906;8.598;2023-01-29T00:31:43;5.07;;;3.93;;
6665;SDS011;3369;49.906;8.598;2023-01-29T00:34:09;4.33;;;3.57;;
6665;SDS011;3369;49.906;8.598;2023-01-29T00:36:35;4.90;;;3.90;;
6665;SDS011;3369;49.906;8.598;2023-01-29T00:39:00;4.30;;;3.90;;
6665;SDS011;3369;49.906;8.598;2023-01-29T00:41:34;3.67;;;3.37;;
6665;SDS011;3369;49.906;8.598;2023-01-29T00:44:19;4.00;;;3.60;;
6665;SDS011;3369;49.906;8.598;2023-01-29T00:47:03;3.40;;;3.10;;
6665;SDS011;3369;49.906;8.598;2023-01-29T00:49:50;3.97;;;3.67;;
6665;SDS011;3369;49.906;8.598;2023-01-29T00:52:16;4.90;;;4.07;;
6665;SDS011;3369;49.906;8.598;2023-01-29T00:54:57;4.97;;;3.60;;
6665;SDS011;3369;49.906;8.598;2023-01-29T00:57:24;4.20;;;3.60;;
6665;SDS011;3369;49.906;8.598;2023-01-29T00:59:52;4.10;;;3.80;;
6665;SDS011;3369;49.906;8.598;2023-01-29T01:02:17;4.13;;;3.73;;
6665;SDS011;3369;49.906;8.598;2023-01-29T01:05:02;6.40;;;4.40;;
6665;SDS011;3369;49.906;8.598;2023-01-29T01:07:30;7.03;;;5.33;;
6665;SDS011;3369;49.906;8.598;2023-01-29T01:09:56;5.37;;;4.87;;
6665;SDS011;3369;49.906;8.598;2023-01-29T01:12:40;4.60;;;4.20;;
6665;SDS011;3369;49.906;8.598;2023-01-29T01:15:06;4.23;;;3.83;;
6665;SDS011;3369;49.906;8.598;2023-01-29T01:17:32;4.73;;;4.33;;
6665;SDS011;3369;49.906;8.598;2023-01-29T01:19:59;4.23;;;3.83;;
6665;SDS011;3369;49.906;8.598;2023-01-29T01:22:25;4.57;;;3.93;;
6665;SDS011;3369;49.906;8.598;2023-01-29T01:24:51;4.20;;;3.80;;
6665;SDS011;3369;49.906;8.598;2023-01-29T01:27:16;3.70;;;3.40;;
6665;SDS011;3369;49.906;8.598;2023-01-29T01:29:43;4.27;;;3.87;;
6665;SDS011;3369;49.906;8.598;2023-01-29T01:32:10;3.60;;;3.30;;
6665;SDS011;3369;49.906;8.598;2023-01-29T01:34:36;4.20;;;3.80;;
6665;SDS011;3369;49.906;8.598;2023-01-29T01:37:01;4.67;;;4.10;;
6665;SDS011;3369;49.906;8.598;2023-01-29T01:39:27;4.23;;;3.70;;
6665;SDS011;3369;49.906;8.598;2023-01-29T01:41:53;4.43;;;3.90;;
6665;SDS011;3369;49.906;8.598;2023-01-29T01:50:00;5.30;;;4.80;;
6665;SDS011;3369;49.906;8.598;2023-01-29T01:52:41;5.77;;;5.17;;
6665;SDS011;3369;49.906;8.598;2023-01-29T01:55:11;5.00;;;4.60;;
6665;SDS011;3369;49.906;8.598;2023-01-29T01:57:39;4.80;;;4.30;;
6665;SDS011;3369;49.906;8.598;2023-01-29T02:00:08;4.43;;;4.03;;
6665;SDS011;3369;49.906;8.598;2023-01-29T02:02:37;5.43;;;4.87;;
6665;SDS011;3369;49.906;8.598;2023-01-29T02:05:23;4.20;;;3.80;;
6665;SDS011;3369;49.906;8.598;2023-01-29T02:08:09;5.10;;;4.60;;
6665;SDS011;3369;49.906;8.598;2023-01-29T02:10:53;5.10;;;4.13;;
6665;SDS011;3369;49.906;8.598;2023-01-29T02:13:19;4.30;;;4.00;;
6665;SDS011;3369;49.906;8.598;2023-01-29T02:15:45;4.13;;;3.83;;
6665;SDS011;3369;49.906;8.598;2023-01-29T02:40:02;3.23;;;2.80;;
6665;SDS011;3369;49.906;8.598;2023-01-29T02:42:47;5.20;;;3.93;;
6665;SDS011;3369;49.906;8.598;2023-01-29T02:45:39;4.00;;;3.60;;
6665;SDS011;3369;49.906;8.598;2023-01-29T02:48:18;4.17;;;3.80;;
6665;SDS011;3369;49.906;8.598;2023-01-29T02:50:48;4.93;;;4.10;;
6665;SDS011;3369;49.906;8.598;2023-01-29T02:53:26;4.60;;;3.57;;
6665;SDS011;3369;49.906;8.598;2023-01-29T02:55:57;4.17;;;3.80;;
6665;SDS011;3369;49.906;8.598;2023-01-29T02:58:35;4.77;;;4.33;;
6665;SDS011;3369;49.906;8.598;2023-01-29T03:01:41;4.50;;;3.80;;
6665;SDS011;3369;49.906;8.598;2023-01-29T03:04:07;4.80;;;4.40;;
6665;SDS011;3369;49.906;8.598;2023-01-29T03:06:37;5.43;;;4.60;;
6665;SDS011;3369;49.906;8.598;2023-01-29T03:09:09;4.70;;;4.20;;
6665;SDS011;3369;49.906;8.598;2023-01-29T03:11:41;4.60;;;4.20;;
6665;SDS011;3369;49.906;8.598;2023-01-29T03:14:18;6.17;;;4.83;;
6665;SDS011;3369;49.906;8.598;2023-01-29T03:17:14;4.87;;;4.37;;
6665;SDS011;3369;49.906;8.598;2023-01-29T03:19:40;4.00;;;3.70;;
6665;SDS011;3369;49.906;8.598;2023-01-29T03:22:10;6.93;;;5.17;;
6665;SDS011;3369;49.906;8.598;2023-01-29T03:27:39;6.10;;;5.50;;
6665;SDS011;3369;49.906;8.598;2023-01-29T03:30:29;6.13;;;5.53;;
6665;SDS011;3369;49.906;8.598;2023-01-29T03:33:16;5.13;;;4.70;;
6665;SDS011;3369;49.906;8.598;2023-01-29T03:35:46;7.13;;;5.53;;
6665;SDS011;3369;49.906;8.598;2023-01-29T03:38:17;5.63;;;5.00;;
6665;SDS011;3369;49.906;8.598;2023-01-29T03:40:51;5.03;;;4.60;;
6665;SDS011;3369;49.906;8.598;2023-01-29T03:46:25;4.50;;;4.10;;
6665;SDS011;3369;49.906;8.598;2023-01-29T03:49:06;4.80;;;4.40;;
6665;SDS011;3369;49.906;8.598;2023-01-29T03:54:43;4.40;;;4.00;;
6665;SDS011;3369;49.906;8.598;2023-01-29T04:00:30;4.57;;;4.17;;
6665;SDS011;3369;49.906;8.598;2023-01-29T04:03:21;5.13;;;4.63;;
6665;SDS011;3369;49.906;8.598;2023-01-29T04:05:54;4.60;;;3.97;;
6665;SDS011;3369;49.906;8.598;2023-01-29T04:08:29;5.03;;;4.13;;
6665;SDS011;3369;49.906;8.598;2023-01-29T04:11:01;5.23;;;4.37;;
6665;SDS011;3369;49.906;8.598;2023-01-29T04:13:33;5.03;;;4.53;;
6665;SDS011;3369;49.906;8.598;2023-01-29T04:16:00;4.53;;;4.13;;
6665;SDS011;3369;49.906;8.598;2023-01-29T04:18:30;5.40;;;4.90;;
6665;SDS011;3369;49.906;8.598;2023-01-29T04:20:56;4.73;;;4.27;;
6665;SDS011;3369;49.906;8.598;2023-01-29T04:23:24;5.53;;;4.67;;
6665;SDS011;3369;49.906;8.598;2023-01-29T04:31:18;5.83;;;4.77;;
6665;SDS011;3369;49.906;8.598;2023-01-29T04:33:50;5.23;;;4.73;;
6665;SDS011;3369;49.906;8.598;2023-01-29T04:39:24;5.20;;;4.70;;
6665;SDS011;3369;49.906;8.598;2023-01-29T04:42:23;4.90;;;4.40;;
6665;SDS011;3369;49.906;8.598;2023-01-29T04:44:59;7.07;;;6.10;;
6665;SDS011;3369;49.906;8.598;2023-01-29T04:50:40;6.97;;;5.83;;
6665;SDS011;3369;49.906;8.598;2023-01-29T04:53:41;6.67;;;5.53;;
6665;SDS011;3369;49.906;8.598;2023-01-29T04:56:40;5.80;;;5.27;;
6665;SDS011;3369;49.906;8.598;2023-01-29T04:59:24;6.27;;;5.33;;
6665;SDS011;3369;49.906;8.598;2023-01-29T05:02:03;6.17;;;5.03;;
6665;SDS011;3369;49.906;8.598;2023-01-29T05:04:30;5.00;;;4.50;;
6665;SDS011;3369;49.906;8.598;2023-01-29T05:07:05;6.20;;;5.07;;
6665;SDS011;3369;49.906;8.598;2023-01-29T05:09:33;6.10;;;5.50;;
6665;SDS011;3369;49.906;8.598;2023-01-29T05:12:01;5.23;;;4.73;;
6665;SDS011;3369;49.906;8.598;2023-01-29T05:14:29;7.20;;;5.20;;
6665;SDS011;3369;49.906;8.598;2023-01-29T05:16:57;7.73;;;5.70;;
6665;SDS011;3369;49.906;8.598;2023-01-29T05:19:28;6.83;;;5.20;;
6665;SDS011;3369;49.906;8.598;2023-01-29T05:21:54;9.97;;;5.93;;
6665;SDS011;3369;49.906;8.598;2023-01-29T05:24:22;7.63;;;5.90;;
6665;SDS011;3369;49.906;8.598;2023-01-29T05:26:50;6.20;;;5.57;;
6665;SDS011;3369;49.906;8.598;2023-01-29T05:29:35;6.80;;;5.50;;
6665;SDS011;3369;49.906;8.598;2023-01-29T05:32:02;7.17;;;6.23;;
6665;SDS011;3369;49.906;8.598;2023-01-29T05:34:28;9.77;;;6.93;;
6665;SDS011;3369;49.906;8.598;2023-01-29T05:36:53;7.07;;;6.33;;
6665;SDS011;3369;49.906;8.598;2023-01-29T05:39:19;7.17;;;5.80;;
6665;SDS011;3369;49.906;8.598;2023-01-29T05:41:45;6.27;;;5.73;;
6665;SDS011;3369;49.906;8.598;2023-01-29T05:44:10;6.47;;;5.87;;
6665;SDS011;3369;49.906;8.598;2023-01-29T05:46:37;5.47;;;4.97;;
6665;SDS011;3369;49.906;8.598;2023-01-29T05:49:03;7.17;;;5.50;;
6665;SDS011;3369;49.906;8.598;2023-01-29T05:51:29;5.47;;;4.97;;
6665;SDS011;3369;49.906;8.598;2023-01-29T05:53:55;6.30;;;5.13;;
6665;SDS011;3369;49.906;8.598;2023-01-29T05:56:20;6.23;;;5.57;;
6665;SDS011;3369;49.906;8.598;2023-01-29T05:58:46;5.37;;;4.87;;
6665;SDS011;3369;49.906;8.598;2023-01-29T06:01:18;5.50;;;5.00;;
6665;SDS011;3369;49.906;8.598;2023-01-29T06:03:47;6.17;;;5.57;;
6665;SDS011;3369;49.906;8.598;2023-01-29T06:06:12;6.50;;;5.90;;
6665;SDS011;3369;49.906;8.598;2023-01-29T06:08:38;6.50;;;5.90;;
6665;SDS011;3369;49.906;8.598;2023-01-29T06:11:08;6.37;;;5.53;;
6665;SDS011;3369;49.906;8.598;2023-01-29T06:13:35;6.90;;;6.00;;
6665;SDS011;3369;49.906;8.598;2023-01-29T06:16:08;5.30;;;4.80;;
6665;SDS011;3369;49.906;8.598;2023-01-29T06:18:35;4.80;;;4.30;;
6665;SDS011;3369;49.906;8.598;2023-01-29T06:21:04;4.90;;;4.50;;
6665;SDS011;3369;49.906;8.598;2023-01-29T06:23:31;4.50;;;4.10;;
6665;SDS011;3369;49.906;8.598;2023-01-29T06:26:08;5.17;;;4.27;;
6665;SDS011;3369;49.906;8.598;2023-01-29T06:28:36;4.20;;;3.80;;
6665;SDS011;3369;49.906;8.598;2023-01-29T06:31:02;4.43;;;4.03;;
6665;SDS011;3369;49.906;8.598;2023-01-29T06:33:29;4.33;;;3.93;;
6665;SDS011;3369;49.906;8.598;2023-01-29T06:35:58;5.90;;;4.07;;
6665;SDS011;3369;49.906;8.598;2023-01-29T06:38:25;4.30;;;3.90;;
6665;SDS011;3369;49.906;8.598;2023-01-29T06:40:52;5.33;;;4.80;;
6665;SDS011;3369;49.906;8.598;2023-01-29T06:43:18;6.73;;;5.77;;
6665;SDS011;3369;49.906;8.598;2023-01-29T06:45:47;6.63;;;6.03;;
6665;SDS011;3369;49.906;8.598;2023-01-29T06:48:17;6.60;;;6.00;;
6665;SDS011;3369;49.906;8.598;2023-01-29T06:50:43;7.33;;;5.87;;
6665;SDS011;3369;49.906;8.598;2023-01-29T06:53:09;6.37;;;5.80;;
6665;SDS011;3369;49.906;8.598;2023-01-29T06:55:35;6.47;;;5.70;;
6665;SDS011;3369;49.906;8.598;2023-01-29T06:58:07;5.50;;;5.00;;
6665;SDS011;3369;49.906;8.598;2023-01-29T07:00:35;5.90;;;5.30;;
6665;SDS011;3369;49.906;8.598;2023-01-29T07:03:01;6.80;;;6.13;;
6665;SDS011;3369;49.906;8.598;2023-01-29T07:05:28;6.27;;;5.67;;
6665;SDS011;3369;49.906;8.598;2023-01-29T07:07:53;7.00;;;6.30;;
6665;SDS011;3369;49.906;8.598;2023-01-29T07:10:19;7.83;;;6.53;;
6665;SDS011;3369;49.906;8.598;2023-01-29T07:12:45;7.57;;;6.57;;
6665;SDS011;3369;49.906;8.598;2023-01-29T07:15:11;8.17;;;6.97;;
6665;SDS011;3369;49.906;8.598;2023-01-29T07:17:37;10.23;;;7.53;;
6665;SDS011;3369;49.906;8.598;2023-01-29T07:20:03;8.20;;;7.37;;
6665;SDS011;3369;49.906;8.598;2023-01-29T07:22:30;7.13;;;6.43;;
6665;SDS011;3369;49.906;8.598;2023-01-29T07:24:56;7.30;;;6.20;;
6665;SDS011;3369;49.906;8.598;2023-01-29T07:27:21;6.90;;;6.20;;
6665;SDS011;3369;49.906;8.598;2023-01-29T07:29:47;6.77;;;5.80;;
6665;SDS011;3369;49.906;8.598;2023-01-29T07:32:12;6.93;;;5.77;;
6665;SDS011;3369;49.906;8.598;2023-01-29T07:34:38;6.20;;;5.60;;
6665;SDS011;3369;49.906;8.598;2023-01-29T07:37:04;6.23;;;5.50;;
6665;SDS011;3369;49.906;8.598;2023-01-29T07:39:30;5.70;;;5.10;;
6665;SDS011;3369;49.906;8.598;2023-01-29T07:41:56;5.63;;;5.13;;
6665;SDS011;3369;49.906;8.598;2023-01-29T07:44:22;5.30;;;4.80;;
6665;SDS011;3369;49.906;8.598;2023-01-29T07:46:47;6.17;;;5.10;;
6665;SDS011;3369;49.906;8.598;2023-01-29T07:49:13;6.97;;;6.27;;
6665;SDS011;3369;49.906;8.598;2023-01-29T07:51:39;7.30;;;6.50;;
6665;SDS011;3369;49.906;8.598;2023-01-29T07:54:04;8.03;;;7.23;;
6665;SDS011;3369;49.906;8.598;2023-01-29T07:56:30;8.00;;;7.17;;
6665;SDS011;3369;49.906;8.598;2023-01-29T07:58:56;7.73;;;6.97;;
6665;SDS011;3369;49.906;8.598;2023-01-29T08:01:21;9.20;;;7.60;;
6665;SDS011;3369;49.906;8.598;2023-01-29T08:03:47;8.00;;;7.20;;
6665;SDS011;3369;49.906;8.598;2023-01-29T08:06:12;8.77;;;7.80;;
6665;SDS011;3369;49.906;8.598;2023-01-29T08:08:38;9.83;;;7.97;;
6665;SDS011;3369;49.906;8.598;2023-01-29T08:11:04;7.63;;;6.83;;
6665;SDS011;3369;49.906;8.598;2023-01-29T08:13:30;6.93;;;6.27;;
6665;SDS011;3369;49.906;8.598;2023-01-29T08:16:02;6.87;;;6.20;;
6665;SDS011;3369;49.906;8.598;2023-01-29T08:18:28;7.37;;;6.67;;
6665;SDS011;3369;49.906;8.598;2023-01-29T08:21:00;6.87;;;6.17;;
6665;SDS011;3369;49.906;8.598;2023-01-29T08:23:27;7.23;;;6.53;;
6665;SDS011;3369;49.906;8.598;2023-01-29T08:25:52;7.67;;;6.73;;
6665;SDS011;3369;49.906;8.598;2023-01-29T08:28:18;7.13;;;6.30;;
6665;SDS011;3369;49.906;8.598;2023-01-29T08:30:43;7.17;;;6.47;;
6665;SDS011;3369;49.906;8.598;2023-01-29T08:33:09;7.27;;;6.57;;
6665;SDS011;3369;49.906;8.598;2023-01-29T08:35:35;8.27;;;7.37;;
6665;SDS011;3369;49.906;8.598;2023-01-29T08:38:02;8.50;;;6.87;;
6665;SDS011;3369;49.906;8.598;2023-01-29T08:40:29;8.57;;;7.50;;
6665;SDS011;3369;49.906;8.598;2023-01-29T08:43:00;8.17;;;7.37;;
6665;SDS011;3369;49.906;8.598;2023-01-29T08:45:27;9.13;;;7.27;;
6665;SDS011;3369;49.906;8.598;2023-01-29T08:47:52;9.00;;;8.10;;
6665;SDS011;3369;49.906;8.598;2023-01-29T08:50:18;7.63;;;6.93;;
6665;SDS011;3369;49.906;8.598;2023-01-29T08:52:44;9.00;;;8.10;;
6665;SDS011;3369;49.906;8.598;2023-01-29T08:55:10;9.47;;;7.93;;
6665;SDS011;3369;49.906;8.598;2023-01-29T08:57:36;7.90;;;7.20;;
6665;SDS011;3369;49.906;8.598;2023-01-29T09:00:03;7.47;;;6.60;;
6665;SDS011;3369;49.906;8.598;2023-01-29T09:02:30;7.17;;;6.50;;
6665;SDS011;3369;49.906;8.598;2023-01-29T09:04:55;7.07;;;6.37;;
6665;SDS011;3369;49.906;8.598;2023-01-29T09:07:21;8.10;;;6.73;;
6665;SDS011;3369;49.906;8.598;2023-01-29T09:09:47;9.23;;;7.40;;
6665;SDS011;3369;49.906;8.598;2023-01-29T09:12:12;9.20;;;7.67;;
6665;SDS011;3369;49.906;8.598;2023-01-29T09:14:38;8.47;;;7.00;;
6665;SDS011;3369;49.906;8.598;2023-01-29T09:17:03;7.73;;;6.93;;
6665;SDS011;3369;49.906;8.598;2023-01-29T09:19:29;7.03;;;6.33;;
6665;SDS011;3369;49.906;8.598;2023-01-29T09:21:55;6.77;;;6.07;;
6665;SDS011;3369;49.906;8.598;2023-01-29T09:24:20;6.10;;;5.50;;
6665;SDS011;3369;49.906;8.598;2023-01-29T09:26:46;6.97;;;6.03;;
6665;SDS011;3369;49.906;8.598;2023-01-29T09:29:11;6.93;;;6.30;;
6665;SDS011;3369;49.906;8.598;2023-01-29T09:31:37;8.00;;;6.87;;
6665;SDS011;3369;49.906;8.598;2023-01-29T09:34:02;6.40;;;5.80;;
6665;SDS011;3369;49.906;8.598;2023-01-29T09:36:28;8.20;;;7.10;;
6665;SDS011;3369;49.906;8.598;2023-01-29T09:38:54;7.73;;;6.93;;
6665;SDS011;3369;49.906;8.598;2023-01-29T09:43:55;7.10;;;6.40;;
6665;SDS011;3369;49.906;8.598;2023-01-29T09:49:25;7.23;;;6.53;;
6665;SDS011;3369;49.906;8.598;2023-01-29T09:52:06;7.93;;;6.53;;
6665;SDS011;3369;49.906;8.598;2023-01-29T09:57:59;7.53;;;6.73;;
6665;SDS011;3369;49.906;8.598;2023-01-29T10:03:14;7.60;;;6.83;;
6665;SDS011;3369;49.906;8.598;2023-01-29T10:14:10;6.20;;;5.60;;
6665;SDS011;3369;49.906;8.598;2023-01-29T10:25:09;9.90;;;6.53;;
6665;SDS011;3369;49.906;8.598;2023-01-29T10:27:39;7.43;;;6.73;;
6665;SDS011;3369;49.906;8.598;2023-01-29T10:30:55;7.43;;;6.43;;
6665;SDS011;3369;49.906;8.598;2023-01-29T10:33:05;6.57;;;5.83;;
6665;SDS011;3369;49.906;8.598;2023-01-29T10:35:37;7.00;;;6.30;;
6665;SDS011;3369;49.906;8.598;2023-01-29T10:54:32;8.47;;;6.93;;
6665;SDS011;3369;49.906;8.598;2023-01-29T11:02:47;8.80;;;7.37;;
6665;SDS011;3369;49.906;8.598;2023-01-29T11:05:17;8.43;;;7.20;;
6665;SDS011;3369;49.906;8.598;2023-01-29T11:07:47;7.33;;;6.70;;
6665;SDS011;3369;49.906;8.598;2023-01-29T11:10:21;8.23;;;6.20;;
6665;SDS011;3369;49.906;8.598;2023-01-29T11:12:49;7.63;;;6.87;;
6665;SDS011;3369;49.906;8.598;2023-01-29T11:15:21;7.23;;;6.20;;
6665;SDS011;3369;49.906;8.598;2023-01-29T11:20:37;8.47;;;6.67;;
6665;SDS011;3369;49.906;8.598;2023-01-29T11:23:03;7.93;;;6.13;;
6665;SDS011;3369;49.906;8.598;2023-01-29T11:25:29;7.03;;;6.27;;
6665;SDS011;3369;49.906;8.598;2023-01-29T11:28:00;9.43;;;6.80;;
6665;SDS011;3369;49.906;8.598;2023-01-29T11:30:36;10.70;;;6.77;;
6665;SDS011;3369;49.906;8.598;2023-01-29T11:35:50;6.83;;;6.13;;
6665;SDS011;3369;49.906;8.598;2023-01-29T11:38:22;8.63;;;6.67;;
6665;SDS011;3369;49.906;8.598;2023-01-29T11:41:13;10.30;;;6.90;;
6665;SDS011;3369;49.906;8.598;2023-01-29T11:43:42;7.77;;;6.97;;
6665;SDS011;3369;49.906;8.598;2023-01-29T11:46:12;9.30;;;7.20;;
6665;SDS011;3369;49.906;8.598;2023-01-29T11:48:46;8.07;;;7.27;;
6665;SDS011;3369;49.906;8.598;2023-01-29T11:54:09;7.00;;;6.30;;
6665;SDS011;3369;49.906;8.598;2023-01-29T11:56:41;9.90;;;7.20;;
6665;SDS011;3369;49.906;8.598;2023-01-29T12:04:47;9.77;;;6.37;;
6665;SDS011;3369;49.906;8.598;2023-01-29T12:07:14;7.67;;;6.17;;
6665;SDS011;3369;49.906;8.598;2023-01-29T12:09:47;7.37;;;6.20;;
6665;SDS011;3369;49.906;8.598;2023-01-29T12:12:43;9.73;;;7.03;;
6665;SDS011;3369;49.906;8.598;2023-01-29T12:17:56;6.90;;;6.23;;
6665;SDS011;3369;49.906;8.598;2023-01-29T12:20:35;7.20;;;5.70;;
6665;SDS011;3369;49.906;8.598;2023-01-29T12:25:54;6.83;;;6.17;;
6665;SDS011;3369;49.906;8.598;2023-01-29T12:28:40;7.30;;;6.60;;
6665;SDS011;3369;49.906;8.598;2023-01-29T12:36:54;7.87;;;6.73;;
6665;SDS011;3369;49.906;8.598;2023-01-29T12:39:26;7.17;;;6.47;;
6665;SDS011;3369;49.906;8.598;2023-01-29T12:41:56;8.27;;;6.67;;
6665;SDS011;3369;49.906;8.598;2023-01-29T12:44:38;9.20;;;6.10;;
6665;SDS011;3369;49.906;8.598;2023-01-29T12:47:18;6.50;;;5.67;;
6665;SDS011;3369;49.906;8.598;2023-01-29T12:49:46;8.07;;;6.57;;
6665;SDS011;3369;49.906;8.598;2023-01-29T12:52:20;7.53;;;6.00;;
6665;SDS011;3369;49.906;8.598;2023-01-29T13:00:23;8.13;;;6.20;;
6665;SDS011;3369;49.906;8.598;2023-01-29T13:08:01;7.57;;;6.80;;
6665;SDS011;3369;49.906;8.598;2023-01-29T13:10:41;6.77;;;6.07;;
6665;SDS011;3369;49.906;8.598;2023-01-29T13:15:39;6.90;;;6.20;;
6665;SDS011;3369;49.906;8.598;2023-01-29T13:21:17;6.83;;;6.03;;
6665;SDS011;3369;49.906;8.598;2023-01-29T13:23:47;7.77;;;5.87;;
6665;SDS011;3369;49.906;8.598;2023-01-29T13:26:19;6.67;;;6.00;;
6665;SDS011;3369;49.906;8.598;2023-01-29T13:28:46;7.43;;;6.03;;
6665;SDS011;3369;49.906;8.598;2023-01-29T13:31:22;7.73;;;6.93;;
6665;SDS011;3369;49.906;8.598;2023-01-29T13:34:15;7.07;;;6.13;;
6665;SDS011;3369;49.906;8.598;2023-01-29T13:36:57;9.93;;;6.67;;
6665;SDS011;3369;49.906;8.598;2023-01-29T13:41:58;9.13;;;6.73;;
6665;SDS011;3369;49.906;8.598;2023-01-29T13:44:25;8.30;;;7.10;;
6665;SDS011;3369;49.906;8.598;2023-01-29T13:49:38;8.77;;;6.37;;
6665;SDS011;3369;49.906;8.598;2023-01-29T13:52:13;7.10;;;6.33;;
6665;SDS011;3369;49.906;8.598;2023-01-29T13:54:39;7.03;;;6.33;;
6665;SDS011;3369;49.906;8.598;2023-01-29T13:57:15;8.13;;;6.33;;
6665;SDS011;3369;49.906;8.598;2023-01-29T13:59:57;7.70;;;6.20;;
6665;SDS011;3369;49.906;8.598;2023-01-29T14:02:27;7.23;;;6.23;;
6665;SDS011;3369;49.906;8.598;2023-01-29T14:07:53;6.83;;;5.87;;
6665;SDS011;3369;49.906;8.598;2023-01-29T14:10:27;9.33;;;6.83;;
6665;SDS011;3369;49.906;8.598;2023-01-29T14:18:26;8.97;;;6.27;;
6665;SDS011;3369;49.906;8.598;2023-01-29T14:20:55;8.10;;;6.20;;
6665;SDS011;3369;49.906;8.598;2023-01-29T14:23:42;6.30;;;5.70;;
6665;SDS011;3369;49.906;8.598;2023-01-29T14:26:25;6.87;;;6.13;;
6665;SDS011;3369;49.906;8.598;2023-01-29T14:31:58;6.03;;;5.40;;
6665;SDS011;3369;49.906;8.598;2023-01-29T15:01:18;7.43;;;6.43;;
6665;SDS011;3369;49.906;8.598;2023-01-29T15:03:45;7.17;;;6.33;;
6665;SDS011;3369;49.906;8.598;2023-01-29T15:09:11;6.53;;;5.80;;
6665;SDS011;3369;49.906;8.598;2023-01-29T15:11:49;7.00;;;6.20;;
6665;SDS011;3369;49.906;8.598;2023-01-29T15:14:20;7.87;;;6.03;;
6665;SDS011;3369;49.906;8.598;2023-01-29T15:19:34;7.07;;;6.03;;
6665;SDS011;3369;49.906;8.598;2023-01-29T15:22:11;6.73;;;5.50;;
6665;SDS011;3369;49.906;8.598;2023-01-29T15:24:39;7.47;;;5.93;;
6665;SDS011;3369;49.906;8.598;2023-01-29T15:27:10;9.10;;;6.33;;
6665;SDS011;3369;49.906;8.598;2023-01-29T15:29:38;5.90;;;5.30;;
6665;SDS011;3369;49.906;8.598;2023-01-29T15:32:08;8.50;;;6.03;;
6665;SDS011;3369;49.906;8.598;2023-01-29T15:34:41;7.00;;;6.30;;
6665;SDS011;3369;49.906;8.598;2023-01-29T15:37:22;10.13;;;7.23;;
6665;SDS011;3369;49.906;8.598;2023-01-29T15:39:58;6.93;;;6.17;;
6665;SDS011;3369;49.906;8.598;2023-01-29T15:42:25;6.80;;;5.60;;
6665;SDS011;3369;49.906;8.598;2023-01-29T15:45:18;8.07;;;6.10;;
6665;SDS011;3369;49.906;8.598;2023-01-29T15:48:04;8.63;;;7.17;;
6665;SDS011;3369;49.906;8.598;2023-01-29T15:50:38;8.83;;;6.87;;
6665;SDS011;3369;49.906;8.598;2023-01-29T15:53:05;7.53;;;6.67;;
6665;SDS011;3369;49.906;8.598;2023-01-29T15:55:36;7.77;;;6.57;;
6665;SDS011;3369;49.906;8.598;2023-01-29T15:58:03;10.80;;;7.57;;
6665;SDS011;3369;49.906;8.598;2023-01-29T16:03:15;9.47;;;7.80;;
6665;SDS011;3369;49.906;8.598;2023-01-29T16:05:44;11.77;;;8.73;;
6665;SDS011;3369;49.906;8.598;2023-01-29T16:08:11;13.10;;;9.83;;
6665;SDS011;3369;49.906;8.598;2023-01-29T16:10:39;11.37;;;8.73;;
6665;SDS011;3369;49.906;8.598;2023-01-29T16:13:10;10.73;;;8.27;;
6665;SDS011;3369;49.906;8.598;2023-01-29T16:15:57;12.20;;;9.03;;
6665;SDS011;3369;49.906;8.598;2023-01-29T16:21:00;12.23;;;9.13;;
6665;SDS011;3369;49.906;8.598;2023-01-29T16:23:35;12.40;;;9.20;;
6665;SDS011;3369;49.906;8.598;2023-01-29T16:26:30;12.83;;;9.23;;
6665;SDS011;3369;49.906;8.598;2023-01-29T16:29:05;11.50;;;9.80;;
6665;SDS011;3369;49.906;8.598;2023-01-29T16:31:33;13.07;;;9.23;;
6665;SDS011;3369;49.906;8.598;2023-01-29T16:34:04;12.10;;;9.53;;
6665;SDS011;3369;49.906;8.598;2023-01-29T16:36:33;10.87;;;8.87;;
6665;SDS011;3369;49.906;8.598;2023-01-29T16:38:59;14.53;;;10.57;;
6665;SDS011;3369;49.906;8.598;2023-01-29T16:41:30;15.63;;;10.63;;
6665;SDS011;3369;49.906;8.598;2023-01-29T16:44:01;16.47;;;10.93;;
6665;SDS011;3369;49.906;8.598;2023-01-29T16:48:56;15.50;;;9.80;;
6665;SDS011;3369;49.906;8.598;2023-01-29T16:51:23;12.97;;;9.87;;
6665;SDS011;3369;49.906;8.598;2023-01-29T16:53:59;15.50;;;9.53;;
6665;SDS011;3369;49.906;8.598;2023-01-29T16:56:34;16.10;;;10.33;;
6665;SDS011;3369;49.906;8.598;2023-01-29T16:59:03;13.03;;;9.47;;
6665;SDS011;3369;49.906;8.598;2023-01-29T17:01:30;20.77;;;11.07;;
6665;SDS011;3369;49.906;8.598;2023-01-29T17:04:00;15.10;;;10.93;;
6665;SDS011;3369;49.906;8.598;2023-01-29T17:06:37;16.80;;;11.30;;
6665;SDS011;3369;49.906;8.598;2023-01-29T17:09:05;15.83;;;12.10;;
6665;SDS011;3369;49.906;8.598;2023-01-29T17:11:35;19.23;;;12.67;;
6665;SDS011;3369;49.906;8.598;2023-01-29T17:14:03;16.40;;;12.30;;
6665;SDS011;3369;49.906;8.598;2023-01-29T17:16:31;13.77;;;10.00;;
6665;SDS011;3369;49.906;8.598;2023-01-29T17:18:59;14.37;;;9.93;;
6665;SDS011;3369;49.906;8.598;2023-01-29T17:21:25;15.00;;;10.07;;
6665;SDS011;3369;49.906;8.598;2023-01-29T17:23:52;14.13;;;10.03;;
6665;SDS011;3369;49.906;8.598;2023-01-29T17:26:18;12.67;;;9.87;;
6665;SDS011;3369;49.906;8.598;2023-01-29T17:28:49;15.83;;;11.03;;
6665;SDS011;3369;49.906;8.598;2023-01-29T17:31:16;16.30;;;11.47;;
6665;SDS011;3369;49.906;8.598;2023-01-29T17:33:42;16.17;;;12.03;;
6665;SDS011;3369;49.906;8.598;2023-01-29T17:36:09;15.87;;;11.43;;
6665;SDS011;3369;49.906;8.598;2023-01-29T17:38:36;13.83;;;9.67;;
6665;SDS011;3369;49.906;8.598;2023-01-29T17:41:06;12.63;;;9.47;;
6665;SDS011;3369;49.906;8.598;2023-01-29T17:43:37;14.87;;;11.63;;
6665;SDS011;3369;49.906;8.598;2023-01-29T17:46:03;12.90;;;10.00;;
6665;SDS011;3369;49.906;8.598;2023-01-29T17:48:29;14.47;;;10.47;;
6665;SDS011;3369;49.906;8.598;2023-01-29T17:50:56;19.03;;;11.57;;
6665;SDS011;3369;49.906;8.598;2023-01-29T17:53:24;21.53;;;12.17;;
6665;SDS011;3369;49.906;8.598;2023-01-29T17:55:50;21.10;;;14.43;;
6665;SDS011;3369;49.906;8.598;2023-01-29T17:58:16;21.33;;;13.43;;
6665;SDS011;3369;49.906;8.598;2023-01-29T18:00:44;18.43;;;12.33;;
6665;SDS011;3369;49.906;8.598;2023-01-29T18:03:10;19.87;;;12.83;;
6665;SDS011;3369;49.906;8.598;2023-01-29T18:05:36;17.17;;;11.83;;
6665;SDS011;3369;49.906;8.598;2023-01-29T18:08:07;16.27;;;11.67;;
6665;SDS011;3369;49.906;8.598;2023-01-29T18:10:54;15.50;;;10.87;;
6665;SDS011;3369;49.906;8.598;2023-01-29T18:13:20;15.67;;;11.57;;
6665;SDS011;3369;49.906;8.598;2023-01-29T18:15:46;18.53;;;12.00;;
6665;SDS011;3369;49.906;8.598;2023-01-29T18:18:13;17.90;;;12.03;;
6665;SDS011;3369;49.906;8.598;2023-01-29T18:20:42;14.33;;;11.07;;
6665;SDS011;3369;49.906;8.598;2023-01-29T18:23:09;17.33;;;12.63;;
6665;SDS011;3369;49.906;8.598;2023-01-29T18:25:35;20.53;;;12.87;;
6665;SDS011;3369;49.906;8.598;2023-01-29T18:28:02;20.13;;;13.10;;
6665;SDS011;3369;49.906;8.598;2023-01-29T18:30:28;21.10;;;14.03;;
6665;SDS011;3369;49.906;8.598;2023-01-29T18:32:54;19.83;;;13.87;;
6665;SDS011;3369;49.906;8.598;2023-01-29T18:35:22;23.33;;;14.97;;
6665;SDS011;3369;49.906;8.598;2023-01-29T18:37:48;19.73;;;13.80;;
6665;SDS011;3369;49.906;8.598;2023-01-29T18:40:15;20.53;;;14.20;;
6665;SDS011;3369;49.906;8.598;2023-01-29T18:42:42;22.07;;;13.97;;
6665;SDS011;3369;49.906;8.598;2023-01-29T18:45:08;21.57;;;13.67;;
6665;SDS011;3369;49.906;8.598;2023-01-29T18:47:34;21.83;;;14.00;;
6665;SDS011;3369;49.906;8.598;2023-01-29T18:50:00;24.00;;;13.40;;